sensor_id;sensor_type;location;lat;lon;timestamp;P1;durP1;ratioP1;P2;durP2;ratioP2
31004;SDS011;17676;52.254;4.490;2022-12-18T00:02:49;123.77;;;37.83;;
31004;SDS011;17676;52.254;4.490;2022-12-18T00:05:17;121.87;;;40.00;;
31004;SDS011;17676;52.254;4.490;2022-12-18T00:07:42;117.33;;;39.30;;
31004;SDS011;17676;52.254;4.490;2022-12-18T00:10:07;101.50;;;31.70;;
31004;SDS011;17676;52.254;4.490;2022-12-18T00:12:33;121.97;;;38.50;;
31004;SDS011;17676;52.254;4.490;2022-12-18T00:14:59;129.00;;;38.67;;
31004;SDS011;17676;52.254;4.490;2022-12-18T00:17:24;129.43;;;39.93;;
31004;SDS011;17676;52.254;4.490;2022-12-18T00:19:50;121.70;;;37.23;;
31004;SDS011;17676;52.254;4.490;2022-12-18T00:22:15;136.07;;;39.70;;
31004;SDS011;17676;52.254;4.490;2022-12-18T00:24:40;130.90;;;42.17;;
31004;SDS011;17676;52.254;4.490;2022-12-18T00:27:06;131.93;;;41.63;;
31004;SDS011;17676;52.254;4.490;2022-12-18T00:29:31;138.40;;;42.73;;
31004;SDS011;17676;52.254;4.490;2022-12-18T00:31:56;130.87;;;42.70;;
31004;SDS011;17676;52.254;4.490;2022-12-18T00:34:21;109.43;;;35.33;;
31004;SDS011;17676;52.254;4.490;2022-12-18T00:36:47;126.40;;;40.43;;
31004;SDS011;17676;52.254;4.490;2022-12-18T00:39:15;127.87;;;38.80;;
31004;SDS011;17676;52.254;4.490;2022-12-18T00:41:40;114.83;;;36.83;;
31004;SDS011;17676;52.254;4.490;2022-12-18T00:44:26;122.10;;;40.30;;
31004;SDS011;17676;52.254;4.490;2022-12-18T00:46:51;123.53;;;37.90;;
31004;SDS011;17676;52.254;4.490;2022-12-18T00:49:17;94.00;;;29.87;;
31004;SDS011;17676;52.254;4.490;2022-12-18T00:51:46;75.57;;;27.10;;
31004;SDS011;17676;52.254;4.490;2022-12-18T00:54:12;112.93;;;34.00;;
31004;SDS011;17676;52.254;4.490;2022-12-18T00:56:37;126.30;;;40.57;;
31004;SDS011;17676;52.254;4.490;2022-12-18T00:59:03;80.67;;;27.20;;
31004;SDS011;17676;52.254;4.490;2022-12-18T01:01:28;107.17;;;34.37;;
31004;SDS011;17676;52.254;4.490;2022-12-18T01:03:53;109.37;;;39.03;;
31004;SDS011;17676;52.254;4.490;2022-12-18T01:06:19;101.40;;;32.07;;
31004;SDS011;17676;52.254;4.490;2022-12-18T01:08:44;74.63;;;23.17;;
31004;SDS011;17676;52.254;4.490;2022-12-18T01:11:14;103.50;;;31.73;;
31004;SDS011;17676;52.254;4.490;2022-12-18T01:13:39;126.80;;;39.77;;
31004;SDS011;17676;52.254;4.490;2022-12-18T01:16:05;115.87;;;37.90;;
31004;SDS011;17676;52.254;4.490;2022-12-18T01:18:41;138.27;;;41.47;;
31004;SDS011;17676;52.254;4.490;2022-12-18T01:21:07;121.23;;;38.00;;
31004;SDS011;17676;52.254;4.490;2022-12-18T01:23:33;82.67;;;29.37;;
31004;SDS011;17676;52.254;4.490;2022-12-18T01:26:03;109.07;;;35.97;;
31004;SDS011;17676;52.254;4.490;2022-12-18T01:28:28;106.83;;;34.47;;
31004;SDS011;17676;52.254;4.490;2022-12-18T01:30:53;110.50;;;36.03;;
31004;SDS011;17676;52.254;4.490;2022-12-18T01:33:18;99.03;;;33.10;;
31004;SDS011;17676;52.254;4.490;2022-12-18T01:35:44;140.00;;;42.00;;
31004;SDS011;17676;52.254;4.490;2022-12-18T01:38:09;133.93;;;42.57;;
31004;SDS011;17676;52.254;4.490;2022-12-18T01:40:35;118.83;;;35.33;;
31004;SDS011;17676;52.254;4.490;2022-12-18T01:43:00;101.50;;;31.90;;
31004;SDS011;17676;52.254;4.490;2022-12-18T01:45:30;115.67;;;36.77;;
31004;SDS011;17676;52.254;4.490;2022-12-18T01:48:03;118.33;;;38.77;;
31004;SDS011;17676;52.254;4.490;2022-12-18T01:53:15;126.50;;;40.53;;
31004;SDS011;17676;52.254;4.490;2022-12-18T01:55:46;107.43;;;33.20;;
31004;SDS011;17676;52.254;4.490;2022-12-18T01:58:15;116.03;;;36.07;;
31004;SDS011;17676;52.254;4.490;2022-12-18T02:00:44;134.50;;;42.53;;
31004;SDS011;17676;52.254;4.490;2022-12-18T02:03:10;130.37;;;41.57;;
31004;SDS011;17676;52.254;4.490;2022-12-18T02:05:46;135.70;;;42.77;;
31004;SDS011;17676;52.254;4.490;2022-12-18T02:08:15;131.97;;;40.23;;
31004;SDS011;17676;52.254;4.490;2022-12-18T02:11:03;133.27;;;41.50;;
31004;SDS011;17676;52.254;4.490;2022-12-18T02:16:02;100.87;;;32.53;;
31004;SDS011;17676;52.254;4.490;2022-12-18T02:24:29;118.97;;;34.60;;
31004;SDS011;17676;52.254;4.490;2022-12-18T02:26:58;113.07;;;35.47;;
31004;SDS011;17676;52.254;4.490;2022-12-18T02:29:25;109.10;;;33.80;;
31004;SDS011;17676;52.254;4.490;2022-12-18T02:31:54;106.73;;;34.33;;
31004;SDS011;17676;52.254;4.490;2022-12-18T02:34:21;90.43;;;29.03;;
31004;SDS011;17676;52.254;4.490;2022-12-18T02:36:50;70.77;;;21.90;;
31004;SDS011;17676;52.254;4.490;2022-12-18T02:39:18;111.30;;;37.27;;
31004;SDS011;17676;52.254;4.490;2022-12-18T02:41:46;126.13;;;35.37;;
31004;SDS011;17676;52.254;4.490;2022-12-18T02:44:13;99.53;;;33.57;;
31004;SDS011;17676;52.254;4.490;2022-12-18T02:46:51;101.83;;;35.20;;
31004;SDS011;17676;52.254;4.490;2022-12-18T02:49:23;116.83;;;36.47;;
31004;SDS011;17676;52.254;4.490;2022-12-18T02:57:52;102.10;;;34.37;;
31004;SDS011;17676;52.254;4.490;2022-12-18T03:00:20;122.07;;;37.23;;
31004;SDS011;17676;52.254;4.490;2022-12-18T03:05:34;126.87;;;36.37;;
31004;SDS011;17676;52.254;4.490;2022-12-18T03:08:08;115.53;;;29.03;;
31004;SDS011;17676;52.254;4.490;2022-12-18T03:10:36;107.60;;;32.27;;
31004;SDS011;17676;52.254;4.490;2022-12-18T03:13:08;78.67;;;27.03;;
31004;SDS011;17676;52.254;4.490;2022-12-18T03:15:40;111.90;;;35.00;;
31004;SDS011;17676;52.254;4.490;2022-12-18T03:18:10;71.07;;;23.13;;
31004;SDS011;17676;52.254;4.490;2022-12-18T03:20:35;82.77;;;27.97;;
31004;SDS011;17676;52.254;4.490;2022-12-18T03:23:04;116.80;;;34.70;;
31004;SDS011;17676;52.254;4.490;2022-12-18T03:25:34;116.00;;;35.93;;
31004;SDS011;17676;52.254;4.490;2022-12-18T03:28:03;111.00;;;36.10;;
31004;SDS011;17676;52.254;4.490;2022-12-18T03:30:31;100.73;;;36.40;;
31004;SDS011;17676;52.254;4.490;2022-12-18T03:33:01;112.13;;;35.37;;
31004;SDS011;17676;52.254;4.490;2022-12-18T03:35:29;93.23;;;34.77;;
31004;SDS011;17676;52.254;4.490;2022-12-18T03:37:55;93.50;;;29.27;;
31004;SDS011;17676;52.254;4.490;2022-12-18T03:40:21;105.00;;;33.73;;
31004;SDS011;17676;52.254;4.490;2022-12-18T03:42:50;113.83;;;33.10;;
31004;SDS011;17676;52.254;4.490;2022-12-18T03:45:25;95.20;;;31.23;;
31004;SDS011;17676;52.254;4.490;2022-12-18T03:48:05;95.50;;;33.47;;
31004;SDS011;17676;52.254;4.490;2022-12-18T03:53:22;113.53;;;34.43;;
31004;SDS011;17676;52.254;4.490;2022-12-18T03:55:50;107.43;;;35.03;;
31004;SDS011;17676;52.254;4.490;2022-12-18T03:58:20;103.40;;;33.30;;
31004;SDS011;17676;52.254;4.490;2022-12-18T04:00:47;101.90;;;35.67;;
31004;SDS011;17676;52.254;4.490;2022-12-18T04:03:13;120.73;;;34.03;;
31004;SDS011;17676;52.254;4.490;2022-12-18T04:05:38;95.97;;;34.13;;
31004;SDS011;17676;52.254;4.490;2022-12-18T04:08:04;105.63;;;32.83;;
31004;SDS011;17676;52.254;4.490;2022-12-18T04:10:29;88.40;;;33.37;;
31004;SDS011;17676;52.254;4.490;2022-12-18T04:12:56;96.50;;;26.90;;
31004;SDS011;17676;52.254;4.490;2022-12-18T04:15:22;89.03;;;31.23;;
31004;SDS011;17676;52.254;4.490;2022-12-18T04:17:48;83.17;;;31.43;;
31004;SDS011;17676;52.254;4.490;2022-12-18T04:20:13;78.30;;;31.10;;
31004;SDS011;17676;52.254;4.490;2022-12-18T04:22:38;88.73;;;33.30;;
31004;SDS011;17676;52.254;4.490;2022-12-18T04:25:04;83.33;;;28.37;;
31004;SDS011;17676;52.254;4.490;2022-12-18T04:27:29;81.10;;;28.10;;
31004;SDS011;17676;52.254;4.490;2022-12-18T04:29:54;85.30;;;31.63;;
31004;SDS011;17676;52.254;4.490;2022-12-18T04:32:20;89.67;;;31.37;;
31004;SDS011;17676;52.254;4.490;2022-12-18T04:34:45;86.33;;;31.60;;
31004;SDS011;17676;52.254;4.490;2022-12-18T04:37:11;96.67;;;30.73;;
31004;SDS011;17676;52.254;4.490;2022-12-18T04:39:36;83.10;;;27.30;;
31004;SDS011;17676;52.254;4.490;2022-12-18T04:42:01;81.10;;;28.63;;
31004;SDS011;17676;52.254;4.490;2022-12-18T04:44:27;81.93;;;29.37;;
31004;SDS011;17676;52.254;4.490;2022-12-18T04:46:52;83.47;;;30.37;;
31004;SDS011;17676;52.254;4.490;2022-12-18T04:49:17;92.87;;;30.73;;
31004;SDS011;17676;52.254;4.490;2022-12-18T04:51:42;76.83;;;30.73;;
31004;SDS011;17676;52.254;4.490;2022-12-18T04:54:10;95.60;;;32.73;;
31004;SDS011;17676;52.254;4.490;2022-12-18T04:56:36;97.97;;;31.07;;
31004;SDS011;17676;52.254;4.490;2022-12-18T04:59:01;76.27;;;29.07;;
31004;SDS011;17676;52.254;4.490;2022-12-18T05:01:27;77.07;;;30.10;;
31004;SDS011;17676;52.254;4.490;2022-12-18T05:03:52;89.63;;;31.13;;
31004;SDS011;17676;52.254;4.490;2022-12-18T05:06:17;80.73;;;32.40;;
31004;SDS011;17676;52.254;4.490;2022-12-18T05:08:43;83.90;;;31.80;;
31004;SDS011;17676;52.254;4.490;2022-12-18T05:11:12;83.40;;;30.57;;
31004;SDS011;17676;52.254;4.490;2022-12-18T05:13:40;81.27;;;31.83;;
31004;SDS011;17676;52.254;4.490;2022-12-18T05:16:06;84.30;;;31.57;;
31004;SDS011;17676;52.254;4.490;2022-12-18T05:18:31;81.67;;;32.47;;
31004;SDS011;17676;52.254;4.490;2022-12-18T05:20:57;83.57;;;31.57;;
31004;SDS011;17676;52.254;4.490;2022-12-18T05:23:23;82.37;;;32.17;;
31004;SDS011;17676;52.254;4.490;2022-12-18T05:25:56;78.23;;;29.20;;
31004;SDS011;17676;52.254;4.490;2022-12-18T05:28:23;74.63;;;29.90;;
31004;SDS011;17676;52.254;4.490;2022-12-18T05:30:49;77.83;;;30.33;;
31004;SDS011;17676;52.254;4.490;2022-12-18T05:33:16;85.13;;;31.30;;
31004;SDS011;17676;52.254;4.490;2022-12-18T05:35:41;76.07;;;30.97;;
31004;SDS011;17676;52.254;4.490;2022-12-18T05:38:06;66.47;;;27.97;;
31004;SDS011;17676;52.254;4.490;2022-12-18T05:40:32;75.17;;;30.87;;
31004;SDS011;17676;52.254;4.490;2022-12-18T05:42:57;91.97;;;31.13;;
31004;SDS011;17676;52.254;4.490;2022-12-18T05:45:22;83.10;;;31.60;;
31004;SDS011;17676;52.254;4.490;2022-12-18T05:47:48;71.47;;;29.17;;
31004;SDS011;17676;52.254;4.490;2022-12-18T05:50:13;86.07;;;30.97;;
31004;SDS011;17676;52.254;4.490;2022-12-18T05:52:39;92.07;;;31.40;;
31004;SDS011;17676;52.254;4.490;2022-12-18T05:55:04;83.73;;;33.03;;
31004;SDS011;17676;52.254;4.490;2022-12-18T05:57:30;79.50;;;32.63;;
31004;SDS011;17676;52.254;4.490;2022-12-18T05:59:58;87.07;;;32.40;;
31004;SDS011;17676;52.254;4.490;2022-12-18T06:02:26;81.30;;;31.10;;
31004;SDS011;17676;52.254;4.490;2022-12-18T06:04:52;91.37;;;31.40;;
31004;SDS011;17676;52.254;4.490;2022-12-18T06:07:21;81.47;;;29.73;;
31004;SDS011;17676;52.254;4.490;2022-12-18T06:09:46;76.83;;;29.50;;
31004;SDS011;17676;52.254;4.490;2022-12-18T06:12:19;88.77;;;33.70;;
31004;SDS011;17676;52.254;4.490;2022-12-18T06:14:45;80.30;;;31.53;;
31004;SDS011;17676;52.254;4.490;2022-12-18T06:17:11;92.00;;;34.67;;
31004;SDS011;17676;52.254;4.490;2022-12-18T06:19:36;88.77;;;34.33;;
31004;SDS011;17676;52.254;4.490;2022-12-18T06:22:01;79.87;;;32.07;;
31004;SDS011;17676;52.254;4.490;2022-12-18T06:24:27;82.27;;;34.17;;
31004;SDS011;17676;52.254;4.490;2022-12-18T06:26:56;80.57;;;31.07;;
31004;SDS011;17676;52.254;4.490;2022-12-18T06:29:21;85.10;;;32.10;;
31004;SDS011;17676;52.254;4.490;2022-12-18T06:31:47;88.57;;;32.00;;
31004;SDS011;17676;52.254;4.490;2022-12-18T06:34:12;79.93;;;32.57;;
31004;SDS011;17676;52.254;4.490;2022-12-18T06:36:37;81.40;;;32.60;;
31004;SDS011;17676;52.254;4.490;2022-12-18T06:39:02;79.50;;;32.10;;
31004;SDS011;17676;52.254;4.490;2022-12-18T06:41:28;83.37;;;31.13;;
31004;SDS011;17676;52.254;4.490;2022-12-18T06:43:53;79.23;;;33.20;;
31004;SDS011;17676;52.254;4.490;2022-12-18T06:46:18;85.20;;;32.13;;
31004;SDS011;17676;52.254;4.490;2022-12-18T06:48:46;75.90;;;31.10;;
31004;SDS011;17676;52.254;4.490;2022-12-18T06:51:11;79.50;;;31.97;;
31004;SDS011;17676;52.254;4.490;2022-12-18T06:53:37;71.67;;;31.23;;
31004;SDS011;17676;52.254;4.490;2022-12-18T06:56:02;76.33;;;30.97;;
31004;SDS011;17676;52.254;4.490;2022-12-18T06:58:28;72.20;;;29.97;;
31004;SDS011;17676;52.254;4.490;2022-12-18T07:00:54;73.00;;;32.00;;
31004;SDS011;17676;52.254;4.490;2022-12-18T07:03:24;62.50;;;28.27;;
31004;SDS011;17676;52.254;4.490;2022-12-18T07:05:49;69.03;;;30.57;;
31004;SDS011;17676;52.254;4.490;2022-12-18T07:08:14;75.23;;;30.43;;
31004;SDS011;17676;52.254;4.490;2022-12-18T07:10:40;65.80;;;28.77;;
31004;SDS011;17676;52.254;4.490;2022-12-18T07:13:07;58.87;;;25.20;;
31004;SDS011;17676;52.254;4.490;2022-12-18T07:15:32;68.53;;;29.50;;
31004;SDS011;17676;52.254;4.490;2022-12-18T07:17:58;66.40;;;28.87;;
31004;SDS011;17676;52.254;4.490;2022-12-18T07:20:23;67.07;;;29.47;;
31004;SDS011;17676;52.254;4.490;2022-12-18T07:22:50;64.73;;;30.13;;
31004;SDS011;17676;52.254;4.490;2022-12-18T07:25:16;64.17;;;27.43;;
31004;SDS011;17676;52.254;4.490;2022-12-18T07:27:41;59.53;;;28.33;;
31004;SDS011;17676;52.254;4.490;2022-12-18T07:30:06;64.40;;;30.43;;
31004;SDS011;17676;52.254;4.490;2022-12-18T07:32:32;65.83;;;30.80;;
31004;SDS011;17676;52.254;4.490;2022-12-18T07:34:57;61.67;;;30.33;;
31004;SDS011;17676;52.254;4.490;2022-12-18T07:37:22;58.30;;;28.40;;
31004;SDS011;17676;52.254;4.490;2022-12-18T07:39:48;59.97;;;29.80;;
31004;SDS011;17676;52.254;4.490;2022-12-18T07:42:14;59.93;;;30.67;;
31004;SDS011;17676;52.254;4.490;2022-12-18T07:45:00;64.63;;;32.20;;
31004;SDS011;17676;52.254;4.490;2022-12-18T07:47:26;56.93;;;30.83;;
31004;SDS011;17676;52.254;4.490;2022-12-18T07:49:51;64.00;;;32.90;;
31004;SDS011;17676;52.254;4.490;2022-12-18T07:52:17;55.10;;;27.77;;
31004;SDS011;17676;52.254;4.490;2022-12-18T07:54:42;59.47;;;31.70;;
31004;SDS011;17676;52.254;4.490;2022-12-18T07:57:08;52.10;;;27.73;;
31004;SDS011;17676;52.254;4.490;2022-12-18T07:59:34;61.73;;;32.33;;
31004;SDS011;17676;52.254;4.490;2022-12-18T08:01:59;56.20;;;31.10;;
31004;SDS011;17676;52.254;4.490;2022-12-18T08:04:25;61.90;;;29.77;;
31004;SDS011;17676;52.254;4.490;2022-12-18T08:06:50;59.40;;;30.90;;
31004;SDS011;17676;52.254;4.490;2022-12-18T08:09:16;58.87;;;31.20;;
31004;SDS011;17676;52.254;4.490;2022-12-18T08:11:41;50.13;;;26.87;;
31004;SDS011;17676;52.254;4.490;2022-12-18T08:14:07;55.33;;;30.10;;
31004;SDS011;17676;52.254;4.490;2022-12-18T08:16:32;54.57;;;27.40;;
31004;SDS011;17676;52.254;4.490;2022-12-18T08:18:58;51.33;;;28.07;;
31004;SDS011;17676;52.254;4.490;2022-12-18T08:21:25;59.73;;;30.33;;
31004;SDS011;17676;52.254;4.490;2022-12-18T08:23:51;54.90;;;29.93;;
31004;SDS011;17676;52.254;4.490;2022-12-18T08:26:17;52.10;;;27.43;;
31004;SDS011;17676;52.254;4.490;2022-12-18T08:28:43;50.33;;;27.07;;
31004;SDS011;17676;52.254;4.490;2022-12-18T08:31:09;53.30;;;27.03;;
31004;SDS011;17676;52.254;4.490;2022-12-18T08:33:34;48.13;;;24.77;;
31004;SDS011;17676;52.254;4.490;2022-12-18T08:36:00;49.70;;;27.23;;
31004;SDS011;17676;52.254;4.490;2022-12-18T08:38:26;49.57;;;27.30;;
31004;SDS011;17676;52.254;4.490;2022-12-18T08:41:01;47.40;;;26.50;;
31004;SDS011;17676;52.254;4.490;2022-12-18T08:43:33;43.23;;;24.03;;
31004;SDS011;17676;52.254;4.490;2022-12-18T08:46:21;46.33;;;25.57;;
31004;SDS011;17676;52.254;4.490;2022-12-18T08:48:47;42.37;;;22.87;;
31004;SDS011;17676;52.254;4.490;2022-12-18T08:51:15;44.90;;;25.40;;
31004;SDS011;17676;52.254;4.490;2022-12-18T08:53:40;43.17;;;23.43;;
31004;SDS011;17676;52.254;4.490;2022-12-18T08:56:06;41.27;;;23.70;;
31004;SDS011;17676;52.254;4.490;2022-12-18T08:58:32;43.40;;;25.00;;
31004;SDS011;17676;52.254;4.490;2022-12-18T09:01:00;43.00;;;24.17;;
31004;SDS011;17676;52.254;4.490;2022-12-18T09:03:26;39.80;;;23.87;;
31004;SDS011;17676;52.254;4.490;2022-12-18T09:05:52;40.77;;;23.47;;
31004;SDS011;17676;52.254;4.490;2022-12-18T09:08:20;37.80;;;22.80;;
31004;SDS011;17676;52.254;4.490;2022-12-18T09:10:46;42.13;;;24.30;;
31004;SDS011;17676;52.254;4.490;2022-12-18T09:13:13;42.80;;;25.87;;
31004;SDS011;17676;52.254;4.490;2022-12-18T09:15:42;37.53;;;21.90;;
31004;SDS011;17676;52.254;4.490;2022-12-18T09:18:07;40.10;;;22.40;;
31004;SDS011;17676;52.254;4.490;2022-12-18T09:20:33;34.67;;;20.87;;
31004;SDS011;17676;52.254;4.490;2022-12-18T09:22:59;34.73;;;21.60;;
31004;SDS011;17676;52.254;4.490;2022-12-18T09:25:25;39.07;;;23.70;;
31004;SDS011;17676;52.254;4.490;2022-12-18T09:27:54;37.00;;;22.20;;
31004;SDS011;17676;52.254;4.490;2022-12-18T09:30:19;36.77;;;23.07;;
31004;SDS011;17676;52.254;4.490;2022-12-18T09:32:45;36.93;;;18.67;;
31004;SDS011;17676;52.254;4.490;2022-12-18T09:35:10;39.90;;;23.33;;
31004;SDS011;17676;52.254;4.490;2022-12-18T09:37:36;36.33;;;23.37;;
31004;SDS011;17676;52.254;4.490;2022-12-18T09:40:01;37.50;;;22.77;;
31004;SDS011;17676;52.254;4.490;2022-12-18T09:42:27;40.23;;;23.77;;
31004;SDS011;17676;52.254;4.490;2022-12-18T09:44:53;38.73;;;23.27;;
31004;SDS011;17676;52.254;4.490;2022-12-18T09:47:23;41.00;;;24.40;;
31004;SDS011;17676;52.254;4.490;2022-12-18T09:49:51;35.90;;;21.57;;
31004;SDS011;17676;52.254;4.490;2022-12-18T09:54:53;33.67;;;19.60;;
31004;SDS011;17676;52.254;4.490;2022-12-18T09:57:20;41.13;;;21.17;;
31004;SDS011;17676;52.254;4.490;2022-12-18T09:59:51;38.17;;;22.33;;
31004;SDS011;17676;52.254;4.490;2022-12-18T10:02:19;32.90;;;17.53;;
31004;SDS011;17676;52.254;4.490;2022-12-18T10:05:00;34.60;;;21.13;;
31004;SDS011;17676;52.254;4.490;2022-12-18T10:12:49;31.70;;;20.13;;
31004;SDS011;17676;52.254;4.490;2022-12-18T10:15:35;34.67;;;20.77;;
31004;SDS011;17676;52.254;4.490;2022-12-18T10:18:07;33.97;;;20.83;;
31004;SDS011;17676;52.254;4.490;2022-12-18T10:20:44;35.03;;;22.03;;
31004;SDS011;17676;52.254;4.490;2022-12-18T10:23:32;38.20;;;19.57;;
31004;SDS011;17676;52.254;4.490;2022-12-18T10:28:27;35.87;;;21.20;;
31004;SDS011;17676;52.254;4.490;2022-12-18T10:30:54;35.43;;;21.50;;
31004;SDS011;17676;52.254;4.490;2022-12-18T10:33:23;38.30;;;20.63;;
31004;SDS011;17676;52.254;4.490;2022-12-18T10:35:52;29.57;;;19.23;;
31004;SDS011;17676;52.254;4.490;2022-12-18T10:41:01;33.37;;;19.53;;
31004;SDS011;17676;52.254;4.490;2022-12-18T10:45:59;34.63;;;20.50;;
31004;SDS011;17676;52.254;4.490;2022-12-18T10:48:25;35.00;;;20.23;;
31004;SDS011;17676;52.254;4.490;2022-12-18T10:50:51;32.17;;;19.90;;
31004;SDS011;17676;52.254;4.490;2022-12-18T10:53:27;28.03;;;19.47;;
31004;SDS011;17676;52.254;4.490;2022-12-18T10:55:53;30.83;;;19.50;;
31004;SDS011;17676;52.254;4.490;2022-12-18T11:01:01;30.13;;;19.70;;
31004;SDS011;17676;52.254;4.490;2022-12-18T11:03:31;34.40;;;19.73;;
31004;SDS011;17676;52.254;4.490;2022-12-18T11:06:04;35.17;;;19.70;;
31004;SDS011;17676;52.254;4.490;2022-12-18T11:08:30;31.90;;;19.07;;
31004;SDS011;17676;52.254;4.490;2022-12-18T11:10:56;30.13;;;18.87;;
31004;SDS011;17676;52.254;4.490;2022-12-18T11:13:22;29.00;;;17.70;;
31004;SDS011;17676;52.254;4.490;2022-12-18T11:15:48;32.80;;;18.77;;
31004;SDS011;17676;52.254;4.490;2022-12-18T11:18:17;31.53;;;19.27;;
31004;SDS011;17676;52.254;4.490;2022-12-18T11:20:49;28.47;;;18.40;;
31004;SDS011;17676;52.254;4.490;2022-12-18T11:23:16;29.60;;;19.10;;
31004;SDS011;17676;52.254;4.490;2022-12-18T11:25:50;31.77;;;19.07;;
31004;SDS011;17676;52.254;4.490;2022-12-18T11:31:08;30.70;;;18.57;;
31004;SDS011;17676;52.254;4.490;2022-12-18T11:33:38;28.30;;;18.17;;
31004;SDS011;17676;52.254;4.490;2022-12-18T11:36:04;34.47;;;19.17;;
31004;SDS011;17676;52.254;4.490;2022-12-18T11:38:34;32.70;;;19.00;;
31004;SDS011;17676;52.254;4.490;2022-12-18T11:41:05;28.10;;;18.43;;
31004;SDS011;17676;52.254;4.490;2022-12-18T11:46:23;29.43;;;18.27;;
31004;SDS011;17676;52.254;4.490;2022-12-18T11:48:54;29.73;;;18.93;;
31004;SDS011;17676;52.254;4.490;2022-12-18T11:51:31;32.97;;;19.40;;
31004;SDS011;17676;52.254;4.490;2022-12-18T11:54:01;34.30;;;18.97;;
31004;SDS011;17676;52.254;4.490;2022-12-18T11:59:31;29.20;;;18.70;;
31004;SDS011;17676;52.254;4.490;2022-12-18T12:02:04;29.53;;;17.53;;
31004;SDS011;17676;52.254;4.490;2022-12-18T12:07:38;29.80;;;17.90;;
31004;SDS011;17676;52.254;4.490;2022-12-18T12:12:37;28.33;;;17.37;;
31004;SDS011;17676;52.254;4.490;2022-12-18T12:15:20;26.60;;;17.00;;
31004;SDS011;17676;52.254;4.490;2022-12-18T12:20:37;29.03;;;17.47;;
31004;SDS011;17676;52.254;4.490;2022-12-18T12:23:06;27.57;;;17.60;;
31004;SDS011;17676;52.254;4.490;2022-12-18T12:25:43;27.83;;;16.77;;
31004;SDS011;17676;52.254;4.490;2022-12-18T12:28:15;29.00;;;18.23;;
31004;SDS011;17676;52.254;4.490;2022-12-18T12:33:37;27.80;;;17.70;;
31004;SDS011;17676;52.254;4.490;2022-12-18T12:38:49;25.03;;;17.17;;
31004;SDS011;17676;52.254;4.490;2022-12-18T12:41:17;25.57;;;15.87;;
31004;SDS011;17676;52.254;4.490;2022-12-18T12:44:14;26.77;;;15.73;;
31004;SDS011;17676;52.254;4.490;2022-12-18T12:46:43;28.23;;;15.70;;
31004;SDS011;17676;52.254;4.490;2022-12-18T12:49:10;26.57;;;17.07;;
31004;SDS011;17676;52.254;4.490;2022-12-18T12:51:37;29.97;;;17.43;;
31004;SDS011;17676;52.254;4.490;2022-12-18T12:54:05;28.67;;;17.47;;
31004;SDS011;17676;52.254;4.490;2022-12-18T12:56:43;26.20;;;17.00;;
31004;SDS011;17676;52.254;4.490;2022-12-18T12:59:13;26.47;;;16.57;;
31004;SDS011;17676;52.254;4.490;2022-12-18T13:09:04;25.83;;;16.93;;
31004;SDS011;17676;52.254;4.490;2022-12-18T13:11:37;28.30;;;16.93;;
31004;SDS011;17676;52.254;4.490;2022-12-18T13:14:24;25.40;;;16.13;;
31004;SDS011;17676;52.254;4.490;2022-12-18T13:16:51;24.93;;;16.97;;
31004;SDS011;17676;52.254;4.490;2022-12-18T13:19:22;25.63;;;16.13;;
31004;SDS011;17676;52.254;4.490;2022-12-18T13:21:55;24.63;;;15.70;;
31004;SDS011;17676;52.254;4.490;2022-12-18T13:24:27;25.80;;;14.83;;
31004;SDS011;17676;52.254;4.490;2022-12-18T13:26:55;21.60;;;14.30;;
31004;SDS011;17676;52.254;4.490;2022-12-18T13:32:15;23.93;;;15.53;;
31004;SDS011;17676;52.254;4.490;2022-12-18T13:34:43;25.87;;;15.43;;
31004;SDS011;17676;52.254;4.490;2022-12-18T13:39:54;25.93;;;15.87;;
31004;SDS011;17676;52.254;4.490;2022-12-18T13:47:56;25.80;;;16.07;;
31004;SDS011;17676;52.254;4.490;2022-12-18T13:50:23;26.93;;;16.50;;
31004;SDS011;17676;52.254;4.490;2022-12-18T13:52:50;25.13;;;15.33;;
31004;SDS011;17676;52.254;4.490;2022-12-18T13:55:16;26.77;;;15.50;;
31004;SDS011;17676;52.254;4.490;2022-12-18T13:57:42;24.97;;;14.07;;
31004;SDS011;17676;52.254;4.490;2022-12-18T14:00:26;27.17;;;16.47;;
31004;SDS011;17676;52.254;4.490;2022-12-18T14:02:53;26.47;;;16.17;;
31004;SDS011;17676;52.254;4.490;2022-12-18T14:05:23;26.27;;;16.30;;
31004;SDS011;17676;52.254;4.490;2022-12-18T14:07:49;26.40;;;16.43;;
31004;SDS011;17676;52.254;4.490;2022-12-18T14:10:15;25.80;;;15.70;;
31004;SDS011;17676;52.254;4.490;2022-12-18T14:12:51;23.97;;;14.87;;
31004;SDS011;17676;52.254;4.490;2022-12-18T14:17:49;27.17;;;16.47;;
31004;SDS011;17676;52.254;4.490;2022-12-18T14:20:33;23.13;;;14.87;;
31004;SDS011;17676;52.254;4.490;2022-12-18T14:22:59;28.40;;;16.83;;
31004;SDS011;17676;52.254;4.490;2022-12-18T14:25:28;25.83;;;16.20;;
31004;SDS011;17676;52.254;4.490;2022-12-18T14:30:39;28.50;;;16.00;;
31004;SDS011;17676;52.254;4.490;2022-12-18T14:43:23;26.67;;;17.30;;
31004;SDS011;17676;52.254;4.490;2022-12-18T14:45:51;27.20;;;17.93;;
31004;SDS011;17676;52.254;4.490;2022-12-18T14:48:18;27.90;;;15.87;;
31004;SDS011;17676;52.254;4.490;2022-12-18T14:50:43;26.63;;;16.33;;
31004;SDS011;17676;52.254;4.490;2022-12-18T14:53:20;24.50;;;16.53;;
31004;SDS011;17676;52.254;4.490;2022-12-18T14:55:47;23.17;;;13.60;;
31004;SDS011;17676;52.254;4.490;2022-12-18T14:58:14;29.37;;;17.43;;
31004;SDS011;17676;52.254;4.490;2022-12-18T15:00:41;29.37;;;16.57;;
31004;SDS011;17676;52.254;4.490;2022-12-18T15:03:07;24.37;;;15.73;;
31004;SDS011;17676;52.254;4.490;2022-12-18T15:05:34;29.27;;;18.10;;
31004;SDS011;17676;52.254;4.490;2022-12-18T15:08:00;27.77;;;17.33;;
31004;SDS011;17676;52.254;4.490;2022-12-18T15:10:28;28.03;;;16.77;;
31004;SDS011;17676;52.254;4.490;2022-12-18T15:20:40;28.30;;;16.73;;
31004;SDS011;17676;52.254;4.490;2022-12-18T15:23:20;30.27;;;16.80;;
31004;SDS011;17676;52.254;4.490;2022-12-18T15:25:47;28.90;;;16.77;;
31004;SDS011;17676;52.254;4.490;2022-12-18T15:28:15;27.87;;;16.67;;
31004;SDS011;17676;52.254;4.490;2022-12-18T15:30:57;23.73;;;12.67;;
31004;SDS011;17676;52.254;4.490;2022-12-18T15:33:26;29.73;;;15.97;;
31004;SDS011;17676;52.254;4.490;2022-12-18T15:35:58;21.37;;;13.17;;
31004;SDS011;17676;52.254;4.490;2022-12-18T15:38:24;26.03;;;15.47;;
31004;SDS011;17676;52.254;4.490;2022-12-18T15:40:53;23.93;;;13.77;;
31004;SDS011;17676;52.254;4.490;2022-12-18T15:43:20;25.60;;;15.20;;
31004;SDS011;17676;52.254;4.490;2022-12-18T15:48:31;26.10;;;15.33;;
31004;SDS011;17676;52.254;4.490;2022-12-18T15:50:56;29.87;;;15.60;;
31004;SDS011;17676;52.254;4.490;2022-12-18T15:53:23;24.23;;;16.20;;
31004;SDS011;17676;52.254;4.490;2022-12-18T15:55:49;26.63;;;16.33;;
31004;SDS011;17676;52.254;4.490;2022-12-18T15:58:33;27.67;;;16.53;;
31004;SDS011;17676;52.254;4.490;2022-12-18T16:00:59;24.40;;;14.70;;
31004;SDS011;17676;52.254;4.490;2022-12-18T16:03:25;28.60;;;16.37;;
31004;SDS011;17676;52.254;4.490;2022-12-18T16:05:50;26.97;;;15.80;;
31004;SDS011;17676;52.254;4.490;2022-12-18T16:08:16;25.87;;;16.37;;
31004;SDS011;17676;52.254;4.490;2022-12-18T16:10:41;24.30;;;13.27;;
31004;SDS011;17676;52.254;4.490;2022-12-18T16:13:09;27.60;;;16.70;;